Tull, Arkansas
Current Conditions -  °F | °C
As of 7:53 PM on Saturday 20 Dec 2014 (Local Time) from KLIT Reporting Station
Overcast Overcast  
Wind Chill: 44°   Ceiling: 5000
Heat Index: 44°   Visibility: 10mi
Dew Point: 36°   Wind: 3mph
Humidity: 73%   Direction: 40°NE
Pressure: 30.25"   Gusts: NA
Location:  34.5666°N, 92.583°W
Report Text: KLIT 210153Z 04003KT 10SM OVC050 07/02 A3025 RMK AO2 SLP246 BINOVC T00670022
Loading
Personal Weather Stations






























Interactive Weather Map New forecast layout! Learn more

10-Day Weather Forecast

Advertisements
Track Severe Weather on mobile